Time;durP1;ratioP1;P1;durP2;ratioP2;P2;SDS_P1;SDS_P2;PMS_P1;PMS_P2;Temp;Humidity;BMP_temperature;BMP_pressure;BME280_temperature;BME280_humidity;BME280_pressure;Samples;Min_cycle;Max_cycle;Signal;HPM_P1;HPM_P2
2021/08/30 00:01:31;;;;;;;;;;;;;;;16.43;100.00;100153.91;5078449;28;19981;-78
2021/08/30 00:03:58;;;;;;;;;;;;;;;16.42;100.00;100163.59;5096715;28;19938;-78
2021/08/30 00:06:25;;;;;;;;;;;;;;;16.45;100.00;100157.13;5096688;28;19928;-78
2021/08/30 00:08:53;;;;;;;;;;;;;;;16.72;100.00;100157.69;5095317;28;20398;-78
2021/08/30 00:11:19;;;;;;;;;;;;;;;16.60;100.00;100156.34;5112004;28;19989;-78
2021/08/30 00:13:47;;;;;;;;;;;;;;;16.36;100.00;100154.06;5078788;28;19924;-78
2021/08/30 00:16:15;;;;;;;;;;;;;;;16.66;100.00;100157.41;5096422;28;19949;-78
2021/08/30 00:18:42;;;;;;;;;;;;;;;16.57;100.00;100165.69;5096507;28;20009;-78
2021/08/30 00:21:09;;;;;;;;;;;;;;;16.41;100.00;100162.78;5078329;28;20311;-78
2021/08/30 00:23:36;;;;;;;;;;;;;;;16.69;100.00;100167.81;5078074;28;20023;-78
2021/08/30 00:26:04;;;;;;;;;;;;;;;16.40;100.00;100166.84;5096260;28;19985;-78
2021/08/30 00:28:32;;;;;;;;;;;;;;;16.12;100.00;100175.91;5111801;28;19950;-78
2021/08/30 00:30:59;;;;;;;;;;;;;;;16.31;100.00;100165.84;5096397;28;20465;-78
2021/08/30 00:33:26;;;;;;;;;;;;;;;16.23;100.00;100163.19;5077463;28;20405;-78
2021/08/30 00:36:09;;;;;;;;;;;;;;;15.80;100.00;100170.91;5096301;28;20391;-78
2021/08/30 00:38:37;;;;;;;;;;;;;;;15.97;100.00;100177.44;5095825;28;19935;-78
2021/08/30 00:41:04;;;;;;;;;;;;;;;16.27;100.00;100173.59;5078180;28;19928;-78
2021/08/30 00:43:31;;;;;;;;;;;;;;;16.21;100.00;100181.75;5111502;28;19931;-78
2021/08/30 00:45:59;;;;;;;;;;;;;;;16.36;100.00;100182.28;5095930;28;20364;-78
2021/08/30 00:48:26;;;;;;;;;;;;;;;16.08;100.00;100178.03;5095771;28;19928;-78
2021/08/30 00:50:54;;;;;;;;;;;;;;;16.04;100.00;100182.91;5095998;28;19947;-78
2021/08/30 00:53:22;;;;;;;;;;;;;;;15.93;100.00;100177.50;5094477;28;19963;-78
2021/08/30 00:55:49;;;;;;;;;;;;;;;16.30;100.00;100181.19;5111374;28;19974;-78
2021/08/30 00:58:16;;;;;;;;;;;;;;;16.24;100.00;100187.34;5077698;28;19961;-78
2021/08/30 01:00:43;;;;;;;;;;;;;;;16.02;100.00;100174.91;5095510;28;20026;-78
2021/08/30 01:03:10;;;;;;;;;;;;;;;16.35;100.00;100177.84;5094008;28;19924;-78
2021/08/30 01:05:41;;;;;;;;;;;;;;;15.97;100.00;100174.63;5111389;28;19924;-78
2021/08/30 01:08:12;;;;;;;;;;;;;;;15.95;100.00;100169.41;5095429;28;20406;-78
2021/08/30 01:10:52;;;;;;;;;;;;;;;15.92;100.00;100178.72;5061194;28;19932;-78
2021/08/30 01:13:25;;;;;;;;;;;;;;;15.93;100.00;100171.84;5077252;28;19932;-78
2021/08/30 01:15:52;;;;;;;;;;;;;;;16.16;100.00;100179.47;5077437;28;19924;-78
2021/08/30 01:18:21;;;;;;;;;;;;;;;15.99;100.00;100172.94;5095140;28;19963;-78
2021/08/30 01:21:08;;;;;;;;;;;;;;;15.90;100.00;100172.72;5095446;28;19966;-78
2021/08/30 01:23:37;;;;;;;;;;;;;;;16.07;100.00;100170.78;5060053;28;20382;-78
2021/08/30 01:26:05;;;;;;;;;;;;;;;16.15;100.00;100173.03;5077201;28;20395;-78
2021/08/30 01:28:36;;;;;;;;;;;;;;;16.23;100.00;100174.47;5095007;28;19924;-78
2021/08/30 01:31:10;;;;;;;;;;;;;;;16.17;100.00;100169.78;5077164;28;19935;-78
2021/08/30 01:33:38;;;;;;;;;;;;;;;16.04;100.00;100172.44;5077055;28;19928;-78
2021/08/30 01:36:06;;;;;;;;;;;;;;;15.92;100.00;100170.28;5077029;28;20019;-78
2021/08/30 01:38:33;;;;;;;;;;;;;;;16.07;100.00;100176.41;5076598;28;19924;-78
2021/08/30 01:41:00;;;;;;;;;;;;;;;16.01;100.00;100190.22;5077037;28;19928;-78
2021/08/30 01:43:28;;;;;;;;;;;;;;;16.05;100.00;100185.31;5094705;28;19928;-79
2021/08/30 01:45:55;;;;;;;;;;;;;;;15.86;100.00;100182.47;5075904;28;20427;-78
2021/08/30 01:48:22;;;;;;;;;;;;;;;15.73;100.00;100187.97;5094608;28;20009;-78
2021/08/30 01:50:50;;;;;;;;;;;;;;;15.70;100.00;100186.03;5076215;28;19947;-78
2021/08/30 01:53:17;;;;;;;;;;;;;;;15.71;100.00;100187.59;5076632;28;19931;-78
2021/08/30 01:55:48;;;;;;;;;;;;;;;15.95;100.00;100196.78;5076462;28;19928;-78
2021/08/30 02:00:52;;;;;;;;;;;;;;;15.90;100.00;100184.00;5076191;28;20042;-78
2021/08/30 02:03:20;;;;;;;;;;;;;;;16.12;100.00;100179.53;5094346;28;20022;-78
2021/08/30 02:05:49;;;;;;;;;;;;;;;16.02;100.00;100183.34;5059542;28;19931;-78
2021/08/30 02:08:16;;;;;;;;;;;;;;;15.92;100.00;100187.19;5094243;28;19977;-78
2021/08/30 02:10:44;;;;;;;;;;;;;;;16.06;100.00;100180.47;5094349;28;19924;-78
2021/08/30 02:13:13;;;;;;;;;;;;;;;16.25;100.00;100176.88;5059711;28;19931;-78
2021/08/30 02:15:40;;;;;;;;;;;;;;;16.03;100.00;100170.88;5059643;28;19999;-78
2021/08/30 02:18:28;;;;;;;;;;;;;;;16.21;100.00;100182.56;5075870;28;19924;-78
2021/08/30 02:20:55;;;;;;;;;;;;;;;16.20;100.00;100169.72;5076112;28;19931;-78
2021/08/30 02:23:25;;;;;;;;;;;;;;;15.94;100.00;100178.31;5075984;28;20240;-78
2021/08/30 02:25:53;;;;;;;;;;;;;;;16.03;100.00;100182.13;5076106;28;20010;-78
2021/08/30 02:28:22;;;;;;;;;;;;;;;16.34;100.00;100179.09;5093880;28;19924;-78
2021/08/30 02:30:50;;;;;;;;;;;;;;;16.07;100.00;100182.06;5075908;28;19955;-78
2021/08/30 02:33:17;;;;;;;;;;;;;;;15.95;100.00;100177.88;5093876;28;19924;-78
2021/08/30 02:35:45;;;;;;;;;;;;;;;16.09;100.00;100183.22;5075747;28;19924;-78
2021/08/30 02:38:14;;;;;;;;;;;;;;;15.92;100.00;100183.56;5093997;28;19924;-78
2021/08/30 02:40:41;;;;;;;;;;;;;;;16.04;100.00;100183.72;5048019;28;20394;-78
2021/08/30 02:43:09;;;;;;;;;;;;;;;16.07;100.00;100182.84;5092368;28;20306;-78
2021/08/30 02:45:38;;;;;;;;;;;;;;;15.94;100.00;100184.75;5075647;28;19928;-78
2021/08/30 02:48:06;;;;;;;;;;;;;;;15.98;100.00;100185.47;5088379;28;19924;-78
2021/08/30 02:50:33;;;;;;;;;;;;;;;16.06;100.00;100181.28;5038539;28;19925;-78
2021/08/30 02:53:00;;;;;;;;;;;;;;;16.00;100.00;100191.47;5073088;28;20011;-78
2021/08/30 02:55:28;;;;;;;;;;;;;;;16.17;100.00;100190.31;5073369;28;19964;-78
2021/08/30 02:57:55;;;;;;;;;;;;;;;15.77;100.00;100185.88;5035341;28;19925;-77
2021/08/30 03:00:22;;;;;;;;;;;;;;;15.96;100.00;100182.25;5069746;28;19924;-78
2021/08/30 03:02:50;;;;;;;;;;;;;;;15.72;100.00;100185.59;5055405;28;19935;-78
2021/08/30 03:05:17;;;;;;;;;;;;;;;15.69;100.00;100181.59;5072946;28;19947;-77
2021/08/30 03:07:46;;;;;;;;;;;;;;;15.68;100.00;100176.38;5073369;28;19931;-78
2021/08/30 03:10:13;;;;;;;;;;;;;;;15.98;100.00;100184.66;5073299;28;19932;-78
2021/08/30 03:12:41;;;;;;;;;;;;;;;16.06;100.00;100180.47;5055080;28;19939;-78
2021/08/30 03:15:11;;;;;;;;;;;;;;;15.92;100.00;100181.56;5055654;28;19970;-78
2021/08/30 03:17:41;;;;;;;;;;;;;;;16.13;100.00;100181.13;5055173;28;20284;-78
2021/08/30 03:20:10;;;;;;;;;;;;;;;16.01;100.00;100178.16;5073053;28;19924;-77
2021/08/30 03:22:39;;;;;;;;;;;;;;;16.03;100.00;100176.50;5055147;28;19928;-78
2021/08/30 03:25:09;;;;;;;;;;;;;;;16.03;100.00;100178.53;5055322;28;20395;-77
2021/08/30 03:27:36;;;;;;;;;;;;;;;16.20;100.00;100177.34;5072849;28;19924;-78
2021/08/30 03:30:03;;;;;;;;;;;;;;;16.17;100.00;100170.56;5055136;28;20342;-78
2021/08/30 03:32:31;;;;;;;;;;;;;;;16.26;100.00;100175.63;5055020;28;19962;-78
2021/08/30 03:34:58;;;;;;;;;;;;;;;16.14;100.00;100173.47;5073044;28;20002;-78
2021/08/30 03:37:26;;;;;;;;;;;;;;;16.03;100.00;100175.69;5073005;28;20392;-78
2021/08/30 03:39:54;;;;;;;;;;;;;;;15.99;100.00;100172.16;5072776;28;19925;-78
2021/08/30 03:42:23;;;;;;;;;;;;;;;15.81;100.00;100175.31;5054941;28;20318;-78
2021/08/30 03:44:50;;;;;;;;;;;;;;;15.98;100.00;100181.84;5034824;28;19929;-78
2021/08/30 03:47:18;;;;;;;;;;;;;;;15.81;100.00;100174.53;5038676;28;20056;-78
2021/08/30 03:49:46;;;;;;;;;;;;;;;16.04;100.00;100178.09;5072450;28;19928;-78
2021/08/30 03:52:13;;;;;;;;;;;;;;;16.03;100.00;100170.88;5054947;28;19924;-78
2021/08/30 03:54:40;;;;;;;;;;;;;;;15.95;100.00;100174.25;5054888;28;20352;-78
2021/08/30 03:57:13;;;;;;;;;;;;;;;16.05;100.00;100176.84;5072761;28;20347;-78
2021/08/30 03:59:42;;;;;;;;;;;;;;;15.81;100.00;100172.50;5055155;28;19935;-78
2021/08/30 04:02:11;;;;;;;;;;;;;;;16.07;100.00;100180.03;5054507;28;20027;-78
2021/08/30 04:04:40;;;;;;;;;;;;;;;16.14;100.00;100171.44;5072560;28;19924;-78
2021/08/30 04:07:08;;;;;;;;;;;;;;;16.00;100.00;100171.72;5054731;28;19994;-78
2021/08/30 04:09:36;;;;;;;;;;;;;;;16.06;100.00;100172.00;5075612;28;19924;-78
2021/08/30 04:12:04;;;;;;;;;;;;;;;16.19;100.00;100168.09;5058045;28;19928;-78
2021/08/30 04:14:31;;;;;;;;;;;;;;;16.10;100.00;100170.72;5038316;28;19951;-78
2021/08/30 04:16:58;;;;;;;;;;;;;;;15.87;100.00;100172.81;5071494;28;20308;-78
2021/08/30 04:19:25;;;;;;;;;;;;;;;16.06;100.00;100175.63;5058094;28;20334;-78
2021/08/30 04:21:52;;;;;;;;;;;;;;;15.89;100.00;100171.16;5076046;28;19924;-78
2021/08/30 04:24:19;;;;;;;;;;;;;;;15.41;100.00;100178.50;5058086;28;20647;-78
2021/08/30 04:26:46;;;;;;;;;;;;;;;15.75;100.00;100181.91;5058072;28;19968;-78
2021/08/30 04:29:15;;;;;;;;;;;;;;;15.63;100.00;100180.50;5075838;28;19964;-78
2021/08/30 04:31:42;;;;;;;;;;;;;;;15.79;100.00;100180.63;5075633;28;20391;-78
2021/08/30 04:34:09;;;;;;;;;;;;;;;15.54;100.00;100182.31;5058060;28;19952;-78
2021/08/30 04:36:38;;;;;;;;;;;;;;;15.75;100.00;100179.09;5058400;28;19951;-78
2021/08/30 04:39:05;;;;;;;;;;;;;;;15.89;100.00;100187.25;5075663;28;19931;-78
2021/08/30 04:41:32;;;;;;;;;;;;;;;15.80;100.00;100185.00;5075455;28;19928;-78
2021/08/30 04:43:59;;;;;;;;;;;;;;;15.73;100.00;100190.00;5057778;28;19946;-78
2021/08/30 04:46:27;;;;;;;;;;;;;;;15.57;100.00;100196.31;5061447;28;19924;-78
2021/08/30 04:48:54;;;;;;;;;;;;;;;15.66;100.00;100190.91;5057690;28;20294;-78
2021/08/30 04:51:21;;;;;;;;;;;;;;;15.72;100.00;100192.00;5057595;28;19925;-78
2021/08/30 04:53:48;;;;;;;;;;;;;;;15.67;100.00;100192.53;5057604;28;20276;-78
2021/08/30 04:56:15;;;;;;;;;;;;;;;15.91;100.00;100196.88;5075325;28;20303;-78
2021/08/30 04:58:43;;;;;;;;;;;;;;;16.20;100.00;100203.53;5075367;28;19924;-78
2021/08/30 05:01:10;;;;;;;;;;;;;;;16.37;100.00;100198.75;5057268;28;20698;-78
2021/08/30 05:03:37;;;;;;;;;;;;;;;16.20;100.00;100194.28;5057225;28;19932;-78
2021/08/30 05:06:04;;;;;;;;;;;;;;;16.23;100.00;100197.03;5075424;28;20280;-78
2021/08/30 05:08:31;;;;;;;;;;;;;;;15.93;100.00;100207.72;5039143;28;20335;-78
2021/08/30 05:10:59;;;;;;;;;;;;;;;15.96;100.00;100210.44;5057578;28;20376;-78
2021/08/30 05:13:28;;;;;;;;;;;;;;;15.98;100.00;100212.84;5057883;28;19925;-78
2021/08/30 05:15:55;;;;;;;;;;;;;;;16.15;100.00;100206.06;5074915;28;19925;-78
2021/08/30 05:18:22;;;;;;;;;;;;;;;15.82;100.00;100210.75;5074978;28;20383;-78
2021/08/30 05:20:50;;;;;;;;;;;;;;;15.99;100.00;100220.88;5057163;28;20388;-78
2021/08/30 05:23:17;;;;;;;;;;;;;;;15.93;100.00;100211.31;5057010;28;20400;-78
2021/08/30 05:25:45;;;;;;;;;;;;;;;16.14;100.00;100208.09;5057154;28;19928;-79
2021/08/30 05:28:13;;;;;;;;;;;;;;;16.14;100.00;100213.75;5074893;28;19924;-78
2021/08/30 05:30:40;;;;;;;;;;;;;;;16.20;100.00;100208.38;5074616;28;19970;-78
2021/08/30 05:33:07;;;;;;;;;;;;;;;16.04;100.00;100211.09;5040618;28;19931;-78
2021/08/30 05:35:34;;;;;;;;;;;;;;;16.25;100.00;100211.47;5074553;28;20392;-78
2021/08/30 05:38:02;;;;;;;;;;;;;;;16.12;100.00;100202.09;5074416;28;19925;-78
2021/08/30 05:40:29;;;;;;;;;;;;;;;16.05;100.00;100207.84;5056717;28;20367;-78
2021/08/30 05:42:57;;;;;;;;;;;;;;;15.84;100.00;100208.28;5056548;28;19931;-78
2021/08/30 05:45:23;;;;;;;;;;;;;;;16.04;100.00;100211.91;5074362;28;19931;-78
2021/08/30 05:47:51;;;;;;;;;;;;;;;16.24;100.00;100197.81;5056586;28;20001;-78
2021/08/30 05:50:33;;;;;;;;;;;;;;;16.20;100.00;100203.53;5074426;28;20020;-78
2021/08/30 05:53:00;;;;;;;;;;;;;;;16.13;100.00;100205.69;5056385;28;19932;-78
2021/08/30 05:55:27;;;;;;;;;;;;;;;16.39;100.00;100203.97;5074014;28;20079;-78
2021/08/30 05:57:54;;;;;;;;;;;;;;;16.43;100.00;100204.69;5056247;28;20375;-77
2021/08/30 06:00:21;;;;;;;;;;;;;;;15.93;100.00;100208.50;5055751;28;20397;-77
2021/08/30 06:02:50;;;;;;;;;;;;;;;15.97;100.00;100212.06;5073620;28;19932;-78
2021/08/30 06:05:17;;;;;;;;;;;;;;;16.24;100.00;100209.09;5055515;28;20015;-76
2021/08/30 06:07:45;;;;;;;;;;;;;;;16.10;100.00;100210.19;5073384;28;19925;-77
2021/08/30 06:10:12;;;;;;;;;;;;;;;16.00;100.00;100221.66;5052778;28;19928;-79
2021/08/30 06:12:39;;;;;;;;;;;;;;;15.93;100.00;100214.13;5055320;28;20342;-77
2021/08/30 06:15:06;;;;;;;;;;;;;;;16.24;100.00;100214.72;5055605;28;19925;-78
2021/08/30 06:17:33;;;;;;;;;;;;;;;16.35;100.00;100214.50;5073731;28;19924;-78
2021/08/30 06:20:01;;;;;;;;;;;;;;;16.27;100.00;100209.03;5073919;28;19972;-78
2021/08/30 06:22:28;;;;;;;;;;;;;;;16.32;100.00;100218.19;5055667;28;19932;-78
2021/08/30 06:24:55;;;;;;;;;;;;;;;16.27;100.00;100213.09;5055688;28;20299;-78
2021/08/30 06:27:22;;;;;;;;;;;;;;;16.18;100.00;100217.28;5073475;28;20402;-79
2021/08/30 06:29:49;;;;;;;;;;;;;;;16.36;100.00;100216.13;5073682;28;20307;-79
2021/08/30 06:32:16;;;;;;;;;;;;;;;16.41;100.00;100212.75;5038474;28;19971;-79
2021/08/30 06:34:44;;;;;;;;;;;;;;;16.40;100.00;100222.47;5073626;28;19924;-79
2021/08/30 06:37:11;;;;;;;;;;;;;;;16.41;100.00;100218.41;5055830;28;19925;-79
2021/08/30 06:39:38;;;;;;;;;;;;;;;16.70;100.00;100216.59;5055686;28;20427;-79
2021/08/30 06:42:05;;;;;;;;;;;;;;;16.62;100.00;100218.78;5072407;28;19947;-79
2021/08/30 06:44:32;;;;;;;;;;;;;;;16.27;100.00;100218.72;5055562;28;19929;-80
2021/08/30 06:47:00;;;;;;;;;;;;;;;16.49;100.00;100219.88;5056343;28;19978;-79
2021/08/30 06:49:27;;;;;;;;;;;;;;;16.48;100.00;100218.31;5056122;28;19925;-79
2021/08/30 06:51:54;;;;;;;;;;;;;;;16.53;100.00;100220.59;5039038;28;20071;-79
2021/08/30 06:54:21;;;;;;;;;;;;;;;16.40;100.00;100219.66;5073596;28;19931;-79
2021/08/30 06:56:48;;;;;;;;;;;;;;;16.46;100.00;100210.28;5038862;28;19960;-79
2021/08/30 06:59:15;;;;;;;;;;;;;;;16.38;100.00;100222.09;5055824;28;20055;-79
2021/08/30 07:01:43;;;;;;;;;;;;;;;16.41;100.00;100218.41;5073337;28;19924;-79
2021/08/30 07:04:10;;;;;;;;;;;;;;;16.30;100.00;100217.84;5073376;28;19928;-79
2021/08/30 07:06:37;;;;;;;;;;;;;;;16.63;100.00;100213.94;5067384;28;19925;-79
2021/08/30 07:09:04;;;;;;;;;;;;;;;16.75;100.00;100216.84;5079221;28;20344;-79
2021/08/30 07:11:32;;;;;;;;;;;;;;;16.54;100.00;100219.38;5059419;28;20425;-79
2021/08/30 07:13:59;;;;;;;;;;;;;;;16.47;100.00;100219.53;5062600;28;19925;-79
2021/08/30 07:16:27;;;;;;;;;;;;;;;16.72;100.00;100228.25;5055427;28;20364;-80
2021/08/30 07:18:54;;;;;;;;;;;;;;;16.92;100.00;100229.00;5055541;28;19935;-79
2021/08/30 07:21:23;;;;;;;;;;;;;;;16.61;100.00;100225.66;5075205;28;20424;-79
2021/08/30 07:23:50;;;;;;;;;;;;;;;16.68;100.00;100224.69;5075684;28;20027;-80
2021/08/30 07:26:19;;;;;;;;;;;;;;;16.88;100.00;100225.44;5092055;28;19924;-79
2021/08/30 07:28:46;;;;;;;;;;;;;;;16.84;100.00;100225.53;5093488;28;20342;-79
2021/08/30 07:31:14;;;;;;;;;;;;;;;17.09;100.00;100224.94;5061165;28;19936;-79
2021/08/30 07:33:42;;;;;;;;;;;;;;;17.20;100.00;100226.28;5093332;28;19924;-79
2021/08/30 07:36:09;;;;;;;;;;;;;;;16.30;100.00;100229.91;5058658;28;19924;-80
2021/08/30 07:38:37;;;;;;;;;;;;;;;16.72;100.00;100233.91;5085250;28;19925;-80
2021/08/30 07:41:04;;;;;;;;;;;;;;;16.63;100.00;100234.47;5073092;28;19935;-80
2021/08/30 07:43:31;;;;;;;;;;;;;;;16.76;100.00;100231.78;5062583;28;20007;-80
2021/08/30 07:46:00;;;;;;;;;;;;;;;16.54;100.00;100233.50;5071696;28;20459;-80
2021/08/30 07:48:28;;;;;;;;;;;;;;;16.54;100.00;100234.25;5059313;28;20414;-81
2021/08/30 07:50:55;;;;;;;;;;;;;;;16.57;100.00;100230.56;5043124;28;19950;-80
2021/08/30 07:53:26;;;;;;;;;;;;;;;16.52;100.00;100231.09;5059449;28;19939;-81
2021/08/30 07:55:54;;;;;;;;;;;;;;;16.90;100.00;100228.63;5042921;28;19925;-80
2021/08/30 07:58:22;;;;;;;;;;;;;;;16.93;100.00;100236.22;5043121;28;20422;-80
2021/08/30 08:00:51;;;;;;;;;;;;;;;16.49;100.00;100236.81;5059240;28;20318;-80
2021/08/30 08:03:18;;;;;;;;;;;;;;;16.69;100.00;100229.91;5087448;28;19932;-81
2021/08/30 08:05:46;;;;;;;;;;;;;;;16.98;100.00;100233.66;5092991;28;20015;-81
2021/08/30 08:08:13;;;;;;;;;;;;;;;16.61;100.00;100238.97;5059174;28;19924;-81
2021/08/30 08:10:41;;;;;;;;;;;;;;;16.57;100.00;100236.22;5077230;28;20417;-81
2021/08/30 08:13:09;;;;;;;;;;;;;;;16.60;100.00;100240.22;5059462;28;19932;-81
2021/08/30 08:15:36;;;;;;;;;;;;;;;17.14;100.00;100238.56;5040070;28;19925;-79
2021/08/30 08:18:04;;;;;;;;;;;;;;;17.09;100.00;100244.72;5070852;28;19994;-81
2021/08/30 08:20:31;;;;;;;;;;;;;;;17.30;100.00;100247.03;5073639;28;20311;-78
2021/08/30 08:22:59;;;;;;;;;;;;;;;17.36;100.00;100237.59;5074567;28;19925;-79
2021/08/30 08:25:28;;;;;;;;;;;;;;;17.49;100.00;100237.72;5058162;28;19932;-79
2021/08/30 08:28:00;;;;;;;;;;;;;;;17.61;100.00;100246.28;5056328;28;19947;-80
2021/08/30 08:30:28;;;;;;;;;;;;;;;17.40;100.00;100248.81;5075524;28;19967;-81
2021/08/30 08:32:57;;;;;;;;;;;;;;;16.95;100.00;100247.88;5057872;28;19924;-84
2021/08/30 08:35:24;;;;;;;;;;;;;;;17.05;100.00;100252.47;5069745;28;19955;-80
2021/08/30 08:37:51;;;;;;;;;;;;;;;17.38;100.00;100254.09;5057040;28;19924;-78
2021/08/30 08:40:18;;;;;;;;;;;;;;;17.32;100.00;100251.00;5075224;28;19978;-78
2021/08/30 08:42:45;;;;;;;;;;;;;;;17.39;100.00;100250.03;5074850;28;19963;-78
2021/08/30 08:45:13;;;;;;;;;;;;;;;17.74;100.00;100240.69;5040199;28;19925;-78
2021/08/30 08:47:41;;;;;;;;;;;;;;;18.00;100.00;100250.88;5074675;28;20013;-78
2021/08/30 08:50:10;;;;;;;;;;;;;;;18.13;100.00;100250.94;5089842;28;19925;-79
2021/08/30 08:52:39;;;;;;;;;;;;;;;18.06;100.00;100248.28;5068679;28;19928;-79
2021/08/30 08:55:06;;;;;;;;;;;;;;;17.49;100.00;100249.00;5039939;28;20005;-78
2021/08/30 08:57:33;;;;;;;;;;;;;;;17.48;100.00;100230.44;5056692;28;19964;-78
2021/08/30 09:00:03;;;;;;;;;;;;;;;17.64;100.00;100250.25;5075056;28;19924;-78
2021/08/30 09:02:31;;;;;;;;;;;;;;;17.48;100.00;100247.41;5057065;28;20390;-78
2021/08/30 09:04:59;;;;;;;;;;;;;;;17.93;100.00;100246.19;5056397;28;19929;-78
2021/08/30 09:07:43;;;;;;;;;;;;;;;17.80;100.00;100236.06;5036703;28;19925;-78
2021/08/30 09:10:14;;;;;;;;;;;;;;;17.55;100.00;100244.41;5070383;28;20019;-78
2021/08/30 09:12:42;;;;;;;;;;;;;;;17.36;100.00;100245.25;5086656;28;20331;-78
2021/08/30 09:15:12;;;;;;;;;;;;;;;17.54;100.00;100248.47;5069362;28;19935;-78
2021/08/30 09:17:39;;;;;;;;;;;;;;;17.82;100.00;100247.75;5090298;28;19932;-78
2021/08/30 09:20:12;;;;;;;;;;;;;;;17.67;100.00;100238.84;5055785;28;19925;-78
2021/08/30 09:22:40;;;;;;;;;;;;;;;17.99;100.00;100240.81;5059377;28;19924;-78
2021/08/30 09:25:08;;;;;;;;;;;;;;;17.83;100.00;100247.28;5074556;28;20039;-78
2021/08/30 09:27:36;;;;;;;;;;;;;;;17.90;100.00;100246.31;5036727;28;19964;-78
2021/08/30 09:33:52;;;;;;;;;;;;;;;18.81;100.00;100243.66;5062862;28;19917;-78
2021/08/30 09:36:20;;;;;;;;;;;;;;;18.74;100.00;100238.22;5074082;28;20349;-78
2021/08/30 09:38:54;;;;;;;;;;;;;;;18.99;100.00;100232.56;5074371;28;19956;-79
2021/08/30 09:41:21;;;;;;;;;;;;;;;19.09;100.00;100242.00;5074425;28;19928;-78
2021/08/30 09:43:58;;;;;;;;;;;;;;;18.73;100.00;100241.50;5056224;28;19928;-78
2021/08/30 09:46:26;;;;;;;;;;;;;;;19.11;100.00;100243.16;5074494;28;19932;-78
2021/08/30 09:48:59;;;;;;;;;;;;;;;19.07;100.00;100245.28;5073877;28;19924;-78
2021/08/30 09:51:28;;;;;;;;;;;;;;;18.76;100.00;100247.09;5056453;28;20391;-79
2021/08/30 09:53:55;;;;;;;;;;;;;;;18.90;100.00;100249.44;5036248;28;19928;-78
2021/08/30 09:56:23;;;;;;;;;;;;;;;19.01;100.00;100252.75;5064271;28;20274;-78
2021/08/30 09:58:50;;;;;;;;;;;;;;;19.06;100.00;100248.56;5037998;28;20388;-78
2021/08/30 10:01:17;;;;;;;;;;;;;;;19.54;100.00;100253.88;5040453;28;20388;-79
2021/08/30 10:03:45;;;;;;;;;;;;;;;19.07;100.00;100262.28;5033791;28;20284;-78
2021/08/30 10:06:12;;;;;;;;;;;;;;;19.15;100.00;100254.34;5033003;28;19925;-78
2021/08/30 10:08:39;;;;;;;;;;;;;;;19.30;100.00;100259.13;5034062;28;19925;-79
2021/08/30 10:11:06;;;;;;;;;;;;;;;18.70;100.00;100256.56;5032663;28;20025;-78
2021/08/30 10:13:34;;;;;;;;;;;;;;;18.82;100.00;100256.59;5033760;28;19991;-78
2021/08/30 10:16:01;;;;;;;;;;;;;;;18.61;100.00;100260.06;5034145;28;19925;-80
2021/08/30 10:18:28;;;;;;;;;;;;;;;18.45;100.00;100254.47;5065828;28;19925;-80
2021/08/30 10:20:55;;;;;;;;;;;;;;;18.85;100.00;100255.69;5032174;28;20411;-79
2021/08/30 10:23:22;;;;;;;;;;;;;;;18.31;100.00;100254.84;5033781;28;20423;-78
2021/08/30 10:25:59;;;;;;;;;;;;;;;18.80;100.00;100267.56;5032149;28;20375;-78
2021/08/30 10:28:33;;;;;;;;;;;;;;;18.84;100.00;100259.75;5024993;28;20426;-78
2021/08/30 10:31:12;;;;;;;;;;;;;;;18.86;100.00;100262.94;5032007;28;19925;-78
2021/08/30 10:33:43;;;;;;;;;;;;;;;18.98;100.00;100253.66;5012071;28;20289;-78
2021/08/30 10:36:14;;;;;;;;;;;;;;;18.95;100.00;100257.41;5032328;28;20356;-78
2021/08/30 10:38:41;;;;;;;;;;;;;;;19.09;100.00;100254.13;5033605;28;19932;-78
2021/08/30 10:41:15;;;;;;;;;;;;;;;18.97;100.00;100254.91;5015857;28;19929;-78
2021/08/30 10:43:43;;;;;;;;;;;;;;;19.02;100.00;100256.38;5032073;28;19932;-78
2021/08/30 10:46:17;;;;;;;;;;;;;;;18.78;100.00;100261.56;5033198;28;20342;-78
2021/08/30 10:48:50;;;;;;;;;;;;;;;18.91;100.00;100258.75;5033190;28;19929;-78
2021/08/30 10:51:19;;;;;;;;;;;;;;;19.00;100.00;100262.50;5032763;28;19931;-78
2021/08/30 10:53:56;;;;;;;;;;;;;;;19.31;100.00;100259.94;5031131;28;19926;-78
2021/08/30 10:56:27;;;;;;;;;;;;;;;19.35;100.00;100252.91;5032315;28;19925;-79
2021/08/30 10:59:03;;;;;;;;;;;;;;;19.38;100.00;100257.66;5031156;28;20039;-79
2021/08/30 11:01:30;;;;;;;;;;;;;;;18.94;100.00;100257.84;5063660;28;19924;-78
2021/08/30 11:03:57;;;;;;;;;;;;;;;19.22;100.00;100259.81;5041819;28;19924;-78
2021/08/30 11:06:25;;;;;;;;;;;;;;;19.15;100.00;100263.66;5039879;28;19935;-77
2021/08/30 11:08:53;;;;;;;;;;;;;;;19.09;100.00;100262.63;5057398;28;19940;-77
2021/08/30 11:11:21;;;;;;;;;;;;;;;19.02;100.00;100265.66;5066028;28;19986;-76
2021/08/30 11:13:57;;;;;;;;;;;;;;;18.45;100.00;100260.13;5035304;28;19925;-76
2021/08/30 11:16:25;;;;;;;;;;;;;;;18.67;100.00;100261.09;5075201;28;19931;-76
2021/08/30 11:19:00;;;;;;;;;;;;;;;18.98;100.00;100259.31;5090808;28;19930;-76
2021/08/30 11:21:36;;;;;;;;;;;;;;;18.24;100.00;100259.91;5064876;28;20031;-76
2021/08/30 11:24:05;;;;;;;;;;;;;;;18.77;100.00;100259.97;5057070;28;19940;-76
2021/08/30 11:26:34;;;;;;;;;;;;;;;18.60;100.00;100261.31;5057195;28;19974;-76
2021/08/30 11:29:05;;;;;;;;;;;;;;;18.92;100.00;100261.13;5090576;28;19924;-76
2021/08/30 11:31:35;;;;;;;;;;;;;;;19.37;100.00;100264.56;5094439;28;19932;-76
2021/08/30 11:34:03;;;;;;;;;;;;;;;19.52;100.00;100262.06;5061972;28;19924;-76
2021/08/30 11:36:46;;;;;;;;;;;;;;;19.40;100.00;100263.66;5030731;28;20463;-76
2021/08/30 11:39:15;;;;;;;;;;;;;;;19.77;100.00;100252.69;5042872;28;19932;-76
2021/08/30 11:41:43;;;;;;;;;;;;;;;19.79;100.00;100255.88;5078044;28;19967;-76
2021/08/30 11:44:10;;;;;;;;;;;;;;;19.89;100.00;100251.91;5076104;28;19924;-76
2021/08/30 11:46:46;;;;;;;;;;;;;;;19.86;100.00;100252.81;5075623;28;19925;-76
2021/08/30 11:49:13;;;;;;;;;;;;;;;19.64;100.00;100256.34;5057989;28;20019;-76
2021/08/30 11:51:43;;;;;;;;;;;;;;;19.93;100.00;100252.56;5057745;28;19924;-76
2021/08/30 11:54:35;;;;;;;;;;;;;;;19.51;100.00;100258.44;5075832;28;20380;-76
2021/08/30 11:57:10;;;;;;;;;;;;;;;19.55;100.00;100276.09;5075635;28;19947;-76
2021/08/30 11:59:38;;;;;;;;;;;;;;;19.79;100.00;100275.72;5058010;28;19930;-76
2021/08/30 12:02:06;;;;;;;;;;;;;;;19.80;100.00;100268.81;5074830;28;20103;-76
2021/08/30 12:04:34;;;;;;;;;;;;;;;19.70;100.00;100271.53;5057597;28;19924;-76
2021/08/30 12:07:05;;;;;;;;;;;;;;;19.73;100.00;100266.22;5075330;28;19957;-76
2021/08/30 12:09:51;;;;;;;;;;;;;;;19.92;100.00;100273.69;5037553;28;19932;-76
2021/08/30 12:12:19;;;;;;;;;;;;;;;19.83;100.00;100262.25;5073083;28;19951;-76
2021/08/30 12:15:04;;;;;;;;;;;;;;;19.39;100.00;100266.94;5075352;28;20292;-76
2021/08/30 12:17:32;;;;;;;;;;;;;;;19.37;100.00;100270.22;5075342;28;19928;-76
2021/08/30 12:20:01;;;;;;;;;;;;;;;19.55;100.00;100275.34;5057621;28;20025;-76
2021/08/30 12:22:31;;;;;;;;;;;;;;;19.68;100.00;100267.59;5075226;28;20041;-76
2021/08/30 12:25:09;;;;;;;;;;;;;;;19.56;100.00;100274.06;5057612;28;19928;-76
2021/08/30 12:27:37;;;;;;;;;;;;;;;19.22;100.00;100271.13;5057417;28;19929;-76
2021/08/30 12:30:18;;;;;;;;;;;;;;;19.28;100.00;100275.03;5075104;28;19928;-76
2021/08/30 12:32:48;;;;;;;;;;;;;;;19.51;100.00;100275.44;5057823;28;19939;-77
2021/08/30 12:35:20;;;;;;;;;;;;;;;19.75;100.00;100266.56;5075768;28;19940;-77
2021/08/30 12:37:47;;;;;;;;;;;;;;;19.46;100.00;100261.84;5075794;28;19925;-79
2021/08/30 12:40:15;;;;;;;;;;;;;;;20.02;100.00;100258.31;5058027;28;19929;-78
2021/08/30 12:42:43;;;;;;;;;;;;;;;20.25;100.00;100266.44;5075830;28;19928;-78